Terminal Aerodrome Forecast
Issued by NWS

Home | Current Version | Previous Version | Text Only | Print | Product List | Glossary On
Versions: 1 2 3 4 5 6 7 8 9 10 11 12 13 14 15 16 17 18 19 20 21 22 23 24
000
FTAK31 PAFA 291120
TAFAFA
TAF
PAFA 291120Z 2912/3018 36008KT P6SM SCT080 BKN200
     FM291700 02004KT P6SM FEW090 SCT200
     FM300400 VRB04KT P6SM FEW200=

USA.gov is the U.S. government's official web portal to all federal, state and local government web resources and services.